Time;durP1;ratioP1;P1;durP2;ratioP2;P2;SDS_P1;SDS_P2;PMS_P1;PMS_P2;Temp;Humidity;BMP_temperature;BMP_pressure;BME280_temperature;BME280_humidity;BME280_pressure;Samples;Min_cycle;Max_cycle;Signal;HPM_P1;HPM_P2
2022/11/02 00:01:27;;;;;;;9.80;3.78;;;10.70;99.90;;;;;;5024347;28;20559;-72
2022/11/02 00:03:52;;;;;;;12.05;4.18;;;10.90;99.90;;;;;;5031064;28;20418;-72
2022/11/02 00:06:18;;;;;;;10.65;4.47;;;10.70;99.90;;;;;;5024912;28;20030;-73
2022/11/02 00:08:44;;;;;;;13.68;4.28;;;10.90;99.90;;;;;;5028236;28;20528;-72
2022/11/02 00:11:10;;;;;;;9.45;4.00;;;11.00;99.90;;;;;;5038418;28;20075;-72
2022/11/02 00:13:36;;;;;;;11.70;5.07;;;11.00;99.90;;;;;;5027599;28;20026;-72
2022/11/02 00:16:04;;;;;;;8.65;3.60;;;11.10;99.90;;;;;;5033864;28;20509;-72
2022/11/02 00:18:32;;;;;;;15.48;4.25;;;11.00;99.90;;;;;;5034235;28;20514;-72
2022/11/02 00:20:58;;;;;;;7.85;3.88;;;10.90;99.90;;;;;;5032299;28;20121;-72
2022/11/02 00:23:23;;;;;;;11.52;4.03;;;10.90;99.90;;;;;;5030233;28;20455;-72
2022/11/02 00:25:51;;;;;;;10.18;4.57;;;10.90;99.90;;;;;;5027569;28;20025;-72
2022/11/02 00:28:17;;;;;;;10.05;4.25;;;11.00;99.90;;;;;;5038467;28;20051;-72
2022/11/02 00:30:43;;;;;;;12.27;4.97;;;10.90;99.90;;;;;;5035107;28;20021;-72
2022/11/02 00:33:10;;;;;;;14.52;4.65;;;10.80;99.90;;;;;;5030808;28;20356;-72
2022/11/02 00:35:36;;;;;;;9.75;4.28;;;10.80;99.90;;;;;;5035207;28;20038;-72
2022/11/02 00:38:02;;;;;;;11.70;4.65;;;11.00;99.90;;;;;;5034552;28;20072;-73
2022/11/02 00:40:28;;;;;;;9.98;4.78;;;10.90;99.90;;;;;;5037298;28;20463;-72
2022/11/02 00:42:53;;;;;;;9.13;4.55;;;10.80;99.90;;;;;;5028979;28;20132;-72
2022/11/02 00:45:21;;;;;;;13.70;4.43;;;10.80;99.90;;;;;;5036066;28;20028;-72
2022/11/02 00:47:47;;;;;;;11.13;4.22;;;10.90;99.90;;;;;;5033913;28;20025;-73
2022/11/02 00:50:12;;;;;;;10.75;4.32;;;10.90;99.90;;;;;;5042246;28;20030;-72
2022/11/02 00:52:39;;;;;;;10.73;4.63;;;10.90;99.90;;;;;;5034544;28;20057;-72
2022/11/02 00:55:07;;;;;;;8.68;4.05;;;10.90;99.90;;;;;;5045089;28;20063;-72
2022/11/02 00:57:33;;;;;;;11.20;4.68;;;10.80;99.90;;;;;;5043979;28;20043;-72
2022/11/02 00:59:59;;;;;;;9.18;3.65;;;10.70;99.90;;;;;;5040202;28;20112;-72
2022/11/02 01:02:24;;;;;;;14.35;4.07;;;10.60;99.90;;;;;;5040155;28;20030;-72
2022/11/02 01:04:50;;;;;;;10.93;4.38;;;10.80;99.90;;;;;;5037672;28;20136;-72
2022/11/02 01:07:16;;;;;;;14.55;4.03;;;10.80;99.90;;;;;;5040417;28;20439;-72
2022/11/02 01:09:41;;;;;;;8.77;3.95;;;10.70;99.90;;;;;;5043775;28;20534;-72
2022/11/02 01:12:07;;;;;;;12.20;4.15;;;10.70;99.90;;;;;;5046337;28;20113;-72
2022/11/02 01:14:33;;;;;;;9.23;3.95;;;10.70;99.90;;;;;;5043754;28;20108;-72
2022/11/02 01:16:58;;;;;;;11.20;4.20;;;10.70;99.90;;;;;;5037187;28;20442;-72
2022/11/02 01:19:25;;;;;;;8.98;4.43;;;10.50;99.90;;;;;;5034990;28;20475;-72
2022/11/02 01:21:50;;;;;;;8.32;3.78;;;10.70;99.90;;;;;;5030203;28;20041;-72
2022/11/02 01:24:16;;;;;;;10.48;4.20;;;10.60;99.90;;;;;;5039948;28;20056;-72
2022/11/02 01:26:42;;;;;;;11.60;4.40;;;10.70;99.90;;;;;;5048011;28;20379;-72
2022/11/02 01:29:07;;;;;;;12.48;4.50;;;10.70;99.90;;;;;;5041229;28;20561;-72
2022/11/02 01:31:33;;;;;;;12.35;4.38;;;10.60;99.90;;;;;;5045816;28;20025;-73
2022/11/02 01:33:59;;;;;;;10.05;4.90;;;10.70;99.90;;;;;;5046080;28;20448;-72
2022/11/02 01:36:25;;;;;;;9.63;4.38;;;10.80;99.90;;;;;;5040485;28;20191;-72
2022/11/02 01:38:50;;;;;;;9.80;4.20;;;10.90;99.90;;;;;;5034780;28;20128;-72
2022/11/02 01:41:17;;;;;;;8.88;4.95;;;10.80;99.90;;;;;;5045321;28;20030;-72
2022/11/02 01:43:48;;;;;;;12.32;3.63;;;10.70;99.90;;;;;;5036220;28;20041;-72
2022/11/02 01:46:39;;;;;;;10.52;3.55;;;10.70;99.90;;;;;;5044564;28;20086;-72
2022/11/02 01:49:10;;;;;;;12.10;3.88;;;10.70;99.90;;;;;;5026066;28;20037;-72
2022/11/02 01:52:00;;;;;;;11.18;3.85;;;10.50;99.90;;;;;;5038917;28;20036;-72
2022/11/02 01:54:30;;;;;;;7.80;3.78;;;10.70;99.90;;;;;;5038573;28;20025;-72
2022/11/02 01:57:05;;;;;;;12.30;4.60;;;10.80;99.90;;;;;;5038986;28;20082;-72
2022/11/02 01:59:37;;;;;;;7.22;3.92;;;10.90;99.90;;;;;;5047187;28;20548;-72
2022/11/02 02:02:07;;;;;;;11.88;4.57;;;10.90;99.90;;;;;;5037963;28;20030;-72
2022/11/02 02:04:34;;;;;;;10.20;4.10;;;10.80;99.90;;;;;;5048952;28;20076;-72
2022/11/02 02:07:01;;;;;;;10.05;4.53;;;10.60;99.90;;;;;;5031715;28;20037;-72
2022/11/02 02:09:27;;;;;;;17.40;5.13;;;10.50;99.90;;;;;;5035354;28;20117;-72
2022/11/02 02:11:53;;;;;;;15.45;4.95;;;10.80;99.90;;;;;;5044616;28;20033;-72
2022/11/02 02:14:19;;;;;;;9.55;3.65;;;10.70;99.90;;;;;;5042671;28;20031;-72
2022/11/02 02:17:05;;;;;;;10.18;4.35;;;10.60;99.90;;;;;;5044911;28;20037;-72
2022/11/02 02:19:48;;;;;;;8.05;4.35;;;10.70;99.90;;;;;;5043814;28;20028;-72
2022/11/02 02:22:29;;;;;;;8.68;3.85;;;10.60;99.90;;;;;;5038508;28;20036;-72
2022/11/02 02:25:08;;;;;;;11.65;5.18;;;10.50;99.90;;;;;;5039646;28;20550;-72
2022/11/02 02:28:04;;;;;;;11.32;4.75;;;10.40;99.90;;;;;;5034653;28;20029;-72
2022/11/02 02:30:38;;;;;;;11.85;3.97;;;10.40;99.90;;;;;;5036718;28;20040;-72
2022/11/02 02:33:09;;;;;;;8.20;4.20;;;10.20;99.90;;;;;;5033699;28;20090;-72
2022/11/02 02:35:47;;;;;;;10.77;4.78;;;10.20;99.90;;;;;;5039226;28;20034;-72
2022/11/02 02:38:24;;;;;;;9.48;3.83;;;10.20;99.90;;;;;;5029032;28;20049;-74
2022/11/02 02:41:19;;;;;;;10.25;4.40;;;10.10;99.90;;;;;;5044931;28;20029;-72
2022/11/02 02:43:53;;;;;;;8.68;3.22;;;10.20;99.90;;;;;;5030889;28;20029;-72
2022/11/02 02:46:31;;;;;;;12.05;4.68;;;10.20;99.90;;;;;;5040886;28;20022;-72
2022/11/02 02:48:59;;;;;;;9.05;4.28;;;10.30;99.90;;;;;;5037442;28;20067;-72
2022/11/02 02:51:28;;;;;;;9.93;4.35;;;10.40;99.90;;;;;;5038535;28;20068;-72
2022/11/02 02:54:25;;;;;;;14.88;5.10;;;10.30;99.90;;;;;;5033112;28;20064;-72
2022/11/02 02:56:57;;;;;;;11.13;3.78;;;10.20;99.90;;;;;;5041052;28;20025;-72
2022/11/02 02:59:27;;;;;;;7.93;3.97;;;10.10;99.90;;;;;;5032427;28;20120;-72
2022/11/02 03:01:54;;;;;;;14.43;4.25;;;10.00;99.90;;;;;;5031220;28;20096;-72
2022/11/02 03:04:20;;;;;;;11.85;3.78;;;9.90;99.90;;;;;;5049473;28;20032;-71
2022/11/02 03:06:51;;;;;;;15.95;3.53;;;10.20;99.90;;;;;;5035791;28;20041;-73
2022/11/02 03:09:39;;;;;;;9.80;4.18;;;10.20;99.90;;;;;;5028312;28;20112;-72
2022/11/02 03:12:26;;;;;;;9.45;3.63;;;10.20;99.90;;;;;;5027984;28;20033;-72
2022/11/02 03:14:57;;;;;;;9.63;3.58;;;10.10;99.90;;;;;;5034526;28;20506;-72
2022/11/02 03:18:06;;;;;;;7.88;4.13;;;10.10;99.90;;;;;;5045562;28;20172;-72
2022/11/02 03:20:49;;;;;;;9.27;4.07;;;10.10;99.90;;;;;;5007036;28;20037;-72
2022/11/02 03:23:29;;;;;;;9.32;4.38;;;10.10;99.90;;;;;;5032162;28;20128;-72
2022/11/02 03:26:29;;;;;;;8.07;4.18;;;10.20;99.90;;;;;;5038065;28;20651;-72
2022/11/02 03:29:31;;;;;;;10.70;3.45;;;10.20;99.90;;;;;;5029428;28;20112;-72
2022/11/02 03:32:01;;;;;;;9.80;4.07;;;10.20;99.90;;;;;;5041024;28;20033;-72
2022/11/02 03:34:54;;;;;;;8.82;4.28;;;10.20;99.90;;;;;;5032285;28;20033;-72
2022/11/02 03:37:37;;;;;;;15.35;5.82;;;10.20;99.90;;;;;;5035988;28;20033;-72
2022/11/02 03:40:12;;;;;;;10.88;4.68;;;10.20;99.90;;;;;;5029541;28;20041;-72
2022/11/02 03:42:40;;;;;;;11.55;4.18;;;10.10;99.90;;;;;;5036168;28;20026;-72
2022/11/02 03:45:11;;;;;;;11.70;3.38;;;10.10;99.90;;;;;;5037895;28;20084;-71
2022/11/02 03:47:38;;;;;;;7.50;3.92;;;10.10;99.90;;;;;;5038745;28;20032;-72
2022/11/02 03:50:07;;;;;;;11.48;4.57;;;10.00;99.90;;;;;;5034352;28;20029;-72
2022/11/02 03:52:37;;;;;;;9.88;3.97;;;10.10;99.90;;;;;;5029265;28;20129;-72
2022/11/02 03:55:11;;;;;;;9.25;4.10;;;9.90;99.90;;;;;;5031395;28;20037;-72
2022/11/02 03:57:44;;;;;;;7.85;3.03;;;9.90;99.90;;;;;;5035736;28;20038;-72
2022/11/02 04:00:12;;;;;;;8.52;3.47;;;10.00;99.90;;;;;;5039789;28;20036;-73
2022/11/02 04:02:41;;;;;;;8.38;4.03;;;10.00;99.90;;;;;;5039442;28;20021;-73
2022/11/02 04:05:07;;;;;;;8.60;4.38;;;9.90;99.90;;;;;;5032303;28;20025;-73
2022/11/02 04:10:20;;;;;;;6.82;3.20;;;9.80;99.90;;;;;;5036023;28;20130;-72
2022/11/02 04:15:30;;;;;;;9.02;3.85;;;9.90;99.90;;;;;;5029719;28;20095;-72
2022/11/02 04:20:39;;;;;;;11.20;3.92;;;10.00;99.90;;;;;;5022329;28;20382;-72
2022/11/02 04:25:53;;;;;;;15.47;5.23;;;10.10;99.90;;;;;;5034840;28;20091;-72
2022/11/02 04:28:19;;;;;;;10.82;4.07;;;10.10;99.90;;;;;;5043020;28;20043;-72
2022/11/02 04:30:45;;;;;;;9.57;4.35;;;10.10;99.90;;;;;;5040323;28;20033;-73
2022/11/02 04:35:55;;;;;;;12.07;3.58;;;10.10;99.90;;;;;;5040386;28;20168;-73
2022/11/02 04:43:59;;;;;;;14.20;4.50;;;9.80;99.90;;;;;;5036311;28;20175;-72
2022/11/02 04:46:28;;;;;;;8.68;4.13;;;9.80;99.90;;;;;;5029498;28;20506;-73
2022/11/02 04:48:54;;;;;;;10.95;4.53;;;9.90;99.90;;;;;;5029291;28;20115;-73
2022/11/02 04:51:21;;;;;;;8.80;5.50;;;9.90;99.90;;;;;;5027720;28;20028;-73
2022/11/02 04:53:47;;;;;;;5.82;3.28;;;9.90;99.90;;;;;;5028429;28;20026;-72
2022/11/02 04:56:13;;;;;;;13.18;3.95;;;10.00;99.90;;;;;;5039723;28;20025;-72
2022/11/02 04:58:39;;;;;;;11.43;4.43;;;10.10;99.90;;;;;;5038231;28;20045;-72
2022/11/02 05:01:13;;;;;;;9.80;3.95;;;10.20;99.90;;;;;;5045088;28;20037;-73
2022/11/02 05:03:38;;;;;;;10.75;3.75;;;10.20;99.90;;;;;;5039997;28;20025;-72
2022/11/02 05:06:05;;;;;;;8.50;3.80;;;10.00;99.90;;;;;;5033442;28;20044;-72
2022/11/02 05:08:31;;;;;;;13.43;4.63;;;10.10;99.90;;;;;;5033715;28;20029;-72
2022/11/02 05:10:58;;;;;;;7.28;3.78;;;10.00;99.90;;;;;;5030073;28;20471;-73
2022/11/02 05:13:25;;;;;;;7.55;4.47;;;9.90;99.90;;;;;;5022333;28;20468;-73
2022/11/02 05:15:54;;;;;;;11.48;4.28;;;9.80;99.90;;;;;;5031639;28;20045;-73
2022/11/02 05:18:19;;;;;;;8.30;3.85;;;9.80;99.90;;;;;;5041186;28;20076;-73
2022/11/02 05:20:53;;;;;;;8.77;3.83;;;9.60;99.90;;;;;;5040663;28;20032;-73
2022/11/02 05:23:20;;;;;;;12.57;4.03;;;9.60;99.90;;;;;;5035774;28;20037;-72
2022/11/02 05:26:03;;;;;;;14.60;4.20;;;9.60;99.90;;;;;;5037324;28;20064;-72
2022/11/02 05:28:29;;;;;;;11.52;3.90;;;10.00;99.90;;;;;;5033720;28;20059;-73
2022/11/02 05:30:58;;;;;;;9.13;4.07;;;9.90;99.90;;;;;;5033012;28;20025;-72
2022/11/02 05:33:23;;;;;;;9.48;3.33;;;9.70;99.90;;;;;;5030318;28;20063;-73
2022/11/02 05:35:49;;;;;;;8.30;3.60;;;9.60;99.90;;;;;;5030382;28;20464;-72
2022/11/02 05:38:15;;;;;;;11.93;4.93;;;9.50;99.90;;;;;;5031199;28;21004;-72
2022/11/02 05:40:40;;;;;;;10.65;4.20;;;9.40;99.90;;;;;;5034566;28;20029;-73
2022/11/02 05:43:08;;;;;;;15.57;4.63;;;9.30;99.90;;;;;;5029231;28;20105;-72
2022/11/02 05:45:35;;;;;;;8.00;3.58;;;9.20;99.90;;;;;;5039501;28;20128;-72
2022/11/02 05:48:01;;;;;;;8.68;4.47;;;9.20;99.90;;;;;;5027409;28;20025;-72
2022/11/02 05:50:27;;;;;;;12.18;3.97;;;9.20;99.90;;;;;;5028725;28;20910;-72
2022/11/02 05:52:53;;;;;;;9.98;3.60;;;9.20;99.90;;;;;;5033079;28;20035;-73
2022/11/02 05:55:19;;;;;;;10.20;4.28;;;9.30;99.90;;;;;;5041050;28;20488;-72
2022/11/02 05:57:54;;;;;;;7.68;3.35;;;9.20;99.90;;;;;;5035876;28;20032;-73
2022/11/02 06:00:21;;;;;;;10.60;4.30;;;9.30;99.90;;;;;;5027120;28;20045;-72
2022/11/02 06:02:48;;;;;;;10.10;4.00;;;9.50;99.90;;;;;;5022445;28;20467;-72
2022/11/02 06:05:14;;;;;;;10.27;4.10;;;9.50;99.90;;;;;;5031235;28;20021;-73
2022/11/02 06:07:39;;;;;;;8.40;4.00;;;9.70;99.90;;;;;;5030090;28;20633;-72
2022/11/02 06:10:06;;;;;;;8.93;3.67;;;9.70;99.90;;;;;;5032256;28;20143;-73
2022/11/02 06:12:32;;;;;;;7.80;3.80;;;9.70;99.90;;;;;;5026524;28;20442;-73
2022/11/02 06:14:57;;;;;;;11.05;4.00;;;9.60;99.90;;;;;;5040905;28;20025;-72
2022/11/02 06:17:23;;;;;;;14.52;4.38;;;9.60;99.90;;;;;;5038159;28;20045;-72
2022/11/02 06:19:49;;;;;;;8.75;4.30;;;9.70;99.90;;;;;;5024349;28;20033;-73
2022/11/02 06:22:15;;;;;;;7.47;3.25;;;9.80;99.90;;;;;;5029699;28;20111;-74
2022/11/02 06:24:40;;;;;;;9.05;3.42;;;9.80;99.90;;;;;;5031708;28;20108;-71
2022/11/02 06:27:06;;;;;;;8.40;3.80;;;9.70;99.90;;;;;;5023242;28;20053;-73
2022/11/02 06:29:31;;;;;;;10.77;4.05;;;9.60;99.90;;;;;;5020958;28;20110;-73
2022/11/02 06:31:57;;;;;;;10.90;3.90;;;9.60;99.90;;;;;;5027999;28;20021;-72
2022/11/02 06:34:23;;;;;;;12.13;4.03;;;9.50;99.90;;;;;;5041430;28;20025;-73
2022/11/02 06:36:48;;;;;;;6.03;3.40;;;9.50;99.90;;;;;;5029569;28;20030;-73
2022/11/02 06:39:14;;;;;;;11.82;4.30;;;9.60;99.90;;;;;;5030721;28;20044;-73
2022/11/02 06:41:40;;;;;;;8.75;4.05;;;9.50;99.90;;;;;;5031928;28;20061;-73
2022/11/02 06:44:05;;;;;;;10.73;4.13;;;9.40;99.90;;;;;;5027283;28;20100;-72
2022/11/02 06:46:31;;;;;;;8.77;3.58;;;9.30;99.90;;;;;;5028802;28;20110;-73
2022/11/02 06:48:57;;;;;;;14.63;4.50;;;9.40;99.90;;;;;;5037198;28;20726;-73
2022/11/02 06:51:23;;;;;;;8.65;3.42;;;9.50;99.90;;;;;;5017173;28;20037;-73
2022/11/02 06:53:49;;;;;;;11.65;3.72;;;9.60;99.90;;;;;;5035107;28;20029;-73
2022/11/02 06:56:14;;;;;;;7.30;3.28;;;9.40;99.90;;;;;;5033424;28;20049;-73
2022/11/02 06:58:40;;;;;;;9.90;3.63;;;9.60;99.90;;;;;;5035041;28;20044;-72
2022/11/02 07:01:07;;;;;;;7.35;3.40;;;9.60;99.90;;;;;;5024447;28;20498;-73
2022/11/02 07:03:34;;;;;;;9.60;3.80;;;9.70;99.90;;;;;;5024673;28;20030;-73
2022/11/02 07:05:59;;;;;;;10.27;4.35;;;9.70;99.90;;;;;;5027506;28;20036;-73
2022/11/02 07:08:26;;;;;;;8.75;4.55;;;9.70;99.90;;;;;;5029113;28;20026;-72
2022/11/02 07:10:52;;;;;;;7.82;3.22;;;9.60;99.90;;;;;;5027666;28;20029;-73
2022/11/02 07:13:18;;;;;;;6.68;3.67;;;9.70;99.90;;;;;;5034812;28;20044;-73
2022/11/02 07:15:44;;;;;;;11.98;4.10;;;9.70;99.90;;;;;;5033802;28;21195;-73
2022/11/02 07:18:10;;;;;;;10.43;3.70;;;9.80;99.90;;;;;;5030146;28;20904;-72
2022/11/02 07:20:36;;;;;;;9.57;3.50;;;10.00;99.90;;;;;;5029511;28;20927;-73
2022/11/02 07:23:03;;;;;;;8.40;3.67;;;10.00;99.90;;;;;;5037537;28;20111;-72
2022/11/02 07:25:30;;;;;;;12.27;4.65;;;10.10;99.90;;;;;;5032570;28;20041;-72
2022/11/02 07:27:58;;;;;;;13.00;4.43;;;10.10;99.90;;;;;;5029285;28;20064;-74
2022/11/02 07:30:25;;;;;;;9.05;4.57;;;10.10;99.90;;;;;;5031857;28;20025;-73
2022/11/02 07:32:51;;;;;;;12.10;4.78;;;10.10;99.90;;;;;;5043432;28;20059;-73
2022/11/02 07:35:17;;;;;;;12.93;4.35;;;10.10;99.90;;;;;;5040759;28;20024;-73
2022/11/02 07:37:43;;;;;;;6.78;3.70;;;10.10;99.90;;;;;;5022103;28;20041;-71
2022/11/02 07:40:10;;;;;;;9.60;3.50;;;10.10;99.90;;;;;;5022639;28;20083;-72
2022/11/02 07:42:42;;;;;;;8.38;4.15;;;10.20;99.90;;;;;;5025719;28;20025;-73
2022/11/02 07:45:08;;;;;;;11.25;3.85;;;10.20;99.90;;;;;;5029844;28;20035;-75
2022/11/02 07:47:44;;;;;;;7.60;4.38;;;10.10;99.90;;;;;;5028653;28;20702;-73
2022/11/02 07:50:10;;;;;;;14.50;6.13;;;10.20;99.90;;;;;;5029189;28;20526;-73
2022/11/02 07:52:43;;;;;;;12.80;5.43;;;10.00;99.90;;;;;;5025318;28;20158;-73
2022/11/02 07:55:08;;;;;;;8.38;5.18;;;9.90;99.90;;;;;;5026339;28;25476;-73
2022/11/02 07:57:34;;;;;;;10.13;4.45;;;9.90;99.90;;;;;;5029694;28;20591;-73
2022/11/02 08:00:00;;;;;;;14.05;5.15;;;10.00;99.90;;;;;;5033160;28;20033;-72
2022/11/02 08:02:25;;;;;;;9.98;4.63;;;10.10;99.90;;;;;;5034067;28;20037;-73
2022/11/02 08:04:51;;;;;;;12.35;5.00;;;10.10;99.90;;;;;;5036077;28;20044;-73
2022/11/02 08:07:16;;;;;;;10.60;4.22;;;10.10;99.90;;;;;;5025800;28;20518;-73
2022/11/02 08:09:42;;;;;;;9.68;4.88;;;10.20;99.90;;;;;;5038945;28;20030;-73
2022/11/02 08:12:08;;;;;;;11.30;4.30;;;10.20;99.90;;;;;;5039893;28;20104;-73
2022/11/02 08:14:33;;;;;;;14.57;4.13;;;10.30;99.90;;;;;;5038072;28;20036;-73
2022/11/02 08:16:59;;;;;;;9.60;3.38;;;10.40;99.90;;;;;;5033047;28;20914;-73
2022/11/02 08:19:24;;;;;;;8.52;3.72;;;10.40;99.90;;;;;;5041153;28;20033;-73
2022/11/02 08:21:50;;;;;;;8.48;4.32;;;10.50;99.90;;;;;;5037555;28;20040;-73
2022/11/02 08:24:16;;;;;;;10.82;4.05;;;10.60;99.90;;;;;;5038131;28;20352;-73
2022/11/02 08:26:41;;;;;;;9.27;4.72;;;10.50;99.90;;;;;;5034825;28;20032;-73
2022/11/02 08:29:07;;;;;;;7.25;3.45;;;10.50;99.90;;;;;;5037388;28;20404;-73
2022/11/02 08:31:32;;;;;;;9.13;3.92;;;10.60;99.90;;;;;;5027356;28;20037;-73
2022/11/02 08:33:58;;;;;;;14.82;5.28;;;10.70;99.90;;;;;;5031945;28;20025;-72
2022/11/02 08:36:24;;;;;;;18.35;5.50;;;10.80;99.90;;;;;;5043938;28;20609;-73
2022/11/02 08:38:49;;;;;;;15.68;4.95;;;10.90;99.90;;;;;;5025134;28;20025;-73
2022/11/02 08:41:15;;;;;;;8.43;3.92;;;10.80;99.90;;;;;;5022885;28;20893;-73
2022/11/02 08:43:40;;;;;;;12.88;3.75;;;10.90;99.90;;;;;;5030254;28;20095;-73
2022/11/02 08:46:06;;;;;;;7.07;3.75;;;11.00;99.90;;;;;;5027651;28;20025;-73
2022/11/02 08:48:32;;;;;;;14.68;5.18;;;11.20;99.90;;;;;;5035160;28;20103;-73
2022/11/02 08:50:58;;;;;;;9.07;3.53;;;11.20;99.90;;;;;;5030625;28;20120;-73
2022/11/02 08:53:23;;;;;;;12.20;4.20;;;11.30;99.90;;;;;;5034696;28;20025;-73
2022/11/02 08:55:49;;;;;;;11.93;4.22;;;11.40;99.90;;;;;;5040925;28;20104;-73
2022/11/02 08:58:14;;;;;;;15.45;5.32;;;11.50;99.90;;;;;;5037974;28;20071;-73
2022/11/02 09:00:40;;;;;;;13.75;4.68;;;11.40;99.90;;;;;;5034484;28;20125;-73
2022/11/02 09:03:13;;;;;;;12.20;5.15;;;11.30;99.90;;;;;;5031088;28;20067;-73
2022/11/02 09:05:42;;;;;;;10.52;4.55;;;11.30;99.90;;;;;;5034008;28;20096;-73
2022/11/02 09:08:16;;;;;;;12.77;4.70;;;11.30;99.90;;;;;;5026974;28;20737;-73
2022/11/02 09:10:42;;;;;;;13.27;5.38;;;11.40;99.90;;;;;;5031270;28;20025;-73
2022/11/02 09:13:10;;;;;;;10.77;5.88;;;11.50;99.90;;;;;;5041202;28;20463;-73
2022/11/02 09:15:36;;;;;;;14.48;5.93;;;11.50;99.90;;;;;;5034029;28;20056;-73
2022/11/02 09:18:03;;;;;;;12.23;5.50;;;11.60;99.90;;;;;;5027919;28;20095;-73
2022/11/02 09:20:29;;;;;;;12.98;6.15;;;11.60;99.90;;;;;;5040983;28;20040;-73
2022/11/02 09:22:55;;;;;;;10.10;4.80;;;11.70;99.90;;;;;;5023919;28;20034;-73
2022/11/02 09:25:20;;;;;;;9.95;4.97;;;11.70;99.90;;;;;;5023677;28;20920;-73
2022/11/02 09:27:50;;;;;;;12.23;5.38;;;11.80;99.90;;;;;;5030831;28;20029;-73
2022/11/02 09:30:16;;;;;;;12.07;5.57;;;11.90;99.90;;;;;;5037403;28;20095;-73
2022/11/02 09:32:42;;;;;;;10.35;4.30;;;12.00;99.90;;;;;;5026015;28;20040;-73
2022/11/02 09:35:10;;;;;;;9.73;4.72;;;11.90;99.90;;;;;;5030771;28;20021;-73
2022/11/02 09:37:36;;;;;;;12.07;4.57;;;12.00;99.90;;;;;;5039778;28;20099;-73
2022/11/02 09:40:04;;;;;;;10.23;4.10;;;12.10;99.90;;;;;;5030994;28;20036;-73
2022/11/02 09:42:54;;;;;;;8.85;4.20;;;12.10;99.90;;;;;;5034635;28;20024;-73
2022/11/02 09:45:20;;;;;;;12.27;4.63;;;12.30;99.90;;;;;;5040382;28;20036;-73
2022/11/02 09:47:48;;;;;;;17.05;4.95;;;12.30;99.90;;;;;;5037183;28;20128;-73
2022/11/02 09:50:20;;;;;;;9.85;4.00;;;12.30;99.90;;;;;;5023724;28;20029;-73
2022/11/02 09:52:52;;;;;;;12.18;4.72;;;12.40;99.90;;;;;;5026961;28;20029;-73
2022/11/02 09:55:41;;;;;;;9.88;4.50;;;12.40;99.90;;;;;;5029611;28;20116;-73
2022/11/02 09:58:15;;;;;;;10.70;4.88;;;12.40;99.90;;;;;;5034182;28;20508;-73
2022/11/02 10:00:45;;;;;;;11.00;3.72;;;12.40;99.90;;;;;;5035397;28;20057;-73
2022/11/02 10:03:31;;;;;;;10.48;5.28;;;12.40;99.90;;;;;;5031158;28;20032;-73
2022/11/02 10:06:06;;;;;;;11.13;4.70;;;12.40;99.90;;;;;;5024504;28;20075;-73
2022/11/02 10:08:39;;;;;;;11.57;4.72;;;12.40;99.90;;;;;;5032580;28;20163;-73
2022/11/02 10:11:34;;;;;;;13.43;4.50;;;12.40;99.90;;;;;;5034193;28;20029;-73
2022/11/02 10:14:11;;;;;;;9.27;4.43;;;12.30;99.90;;;;;;5028779;28;20029;-73
2022/11/02 10:16:45;;;;;;;12.48;4.15;;;12.40;99.90;;;;;;5021966;28;20064;-72
2022/11/02 10:19:18;;;;;;;11.82;4.05;;;12.40;99.90;;;;;;5029303;28;20072;-73
2022/11/02 10:21:47;;;;;;;12.98;4.53;;;12.50;99.90;;;;;;5027613;28;21095;-73
2022/11/02 10:24:33;;;;;;;13.10;4.53;;;12.50;99.90;;;;;;5032672;28;20059;-73
2022/11/02 10:27:01;;;;;;;12.15;5.43;;;12.50;99.90;;;;;;5030258;28;20095;-73
2022/11/02 10:30:05;;;;;;;11.80;4.40;;;12.60;99.90;;;;;;5028185;28;20491;-73
2022/11/02 10:32:35;;;;;;;14.50;4.47;;;12.70;99.90;;;;;;5023497;28;20725;-73
2022/11/02 10:35:06;;;;;;;12.93;4.38;;;12.80;99.90;;;;;;5036381;28;20025;-73
2022/11/02 10:37:37;;;;;;;9.75;4.72;;;12.80;99.90;;;;;;5032485;28;20679;-73
2022/11/02 10:40:24;;;;;;;13.48;4.25;;;12.70;99.90;;;;;;5031386;28;20039;-73
2022/11/02 10:43:07;;;;;;;9.70;4.55;;;12.80;99.90;;;;;;5030737;28;20028;-73
2022/11/02 10:46:10;;;;;;;11.73;4.55;;;12.90;99.90;;;;;;5037768;28;20718;-73
2022/11/02 10:48:44;;;;;;;11.18;4.80;;;13.00;99.90;;;;;;5027605;28;20044;-73
2022/11/02 10:51:11;;;;;;;12.50;4.75;;;13.00;99.90;;;;;;5037599;28;20491;-73
2022/11/02 10:53:42;;;;;;;9.25;4.38;;;13.10;99.90;;;;;;5033590;28;20092;-73
2022/11/02 10:56:16;;;;;;;11.65;4.93;;;13.20;99.90;;;;;;5031409;28;20387;-73
2022/11/02 10:59:07;;;;;;;15.67;4.13;;;13.20;99.90;;;;;;5022136;28;20029;-73
2022/11/02 11:01:33;;;;;;;12.98;4.93;;;13.30;99.90;;;;;;5026151;28;20076;-73
2022/11/02 11:04:03;;;;;;;11.25;4.07;;;13.40;99.90;;;;;;5031733;28;20052;-73
2022/11/02 11:06:39;;;;;;;11.88;5.25;;;13.50;99.90;;;;;;5025427;28;20037;-73
2022/11/02 11:09:06;;;;;;;15.13;5.20;;;13.50;99.90;;;;;;5026898;28;20041;-73
2022/11/02 11:11:35;;;;;;;10.93;3.78;;;13.80;99.90;;;;;;5024097;28;20101;-73
2022/11/02 11:14:16;;;;;;;11.60;3.70;;;13.90;99.90;;;;;;5028131;28;20039;-73
2022/11/02 11:16:53;;;;;;;12.73;4.55;;;13.80;99.90;;;;;;5033351;28;20053;-73
2022/11/02 11:19:38;;;;;;;9.50;4.25;;;13.80;99.90;;;;;;5028551;28;20040;-73
2022/11/02 11:22:39;;;;;;;13.55;4.35;;;13.90;99.90;;;;;;5028199;28;20553;-73
2022/11/02 11:25:11;;;;;;;11.07;3.67;;;13.90;99.90;;;;;;4935269;28;20099;-73
2022/11/02 11:28:19;;;;;;;10.27;3.17;;;13.90;99.90;;;;;;5014997;28;20559;-72
2022/11/02 11:30:59;;;;;;;9.10;3.97;;;14.10;99.90;;;;;;5021689;28;20378;-73
2022/11/02 11:33:25;;;;;;;9.50;4.43;;;14.20;99.90;;;;;;5029508;28;20033;-73
2022/11/02 11:35:51;;;;;;;11.57;3.72;;;14.20;99.90;;;;;;5025873;28;20541;-73
2022/11/02 11:38:20;;;;;;;10.90;3.38;;;14.20;99.90;;;;;;5021777;28;20092;-73
2022/11/02 11:40:53;;;;;;;10.20;3.83;;;14.20;99.90;;;;;;5020822;28;20031;-73
2022/11/02 11:43:21;;;;;;;10.65;3.72;;;14.30;99.90;;;;;;5021762;28;20029;-73
2022/11/02 11:46:02;;;;;;;13.80;3.92;;;14.40;99.90;;;;;;5029361;28;20033;-73
2022/11/02 11:48:48;;;;;;;10.57;3.65;;;14.40;99.90;;;;;;5021806;28;20124;-73
2022/11/02 11:51:31;;;;;;;13.48;4.75;;;14.30;99.90;;;;;;5021331;28;20490;-73
2022/11/02 11:54:22;;;;;;;9.55;4.10;;;14.20;99.90;;;;;;5025727;28;20054;-73
2022/11/02 11:56:49;;;;;;;13.48;4.38;;;14.50;99.90;;;;;;5021711;28;20030;-74
2022/11/02 11:59:20;;;;;;;19.33;4.57;;;14.70;99.90;;;;;;5032144;28;20039;-74
2022/11/02 12:01:46;;;;;;;8.15;4.07;;;14.80;99.90;;;;;;5029089;28;20029;-73
2022/11/02 12:04:12;;;;;;;11.23;3.70;;;14.90;99.90;;;;;;5035137;28;20060;-73
2022/11/02 12:06:47;;;;;;;11.65;4.40;;;15.00;99.90;;;;;;5020648;28;20040;-73
2022/11/02 12:09:21;;;;;;;10.55;3.53;;;15.00;99.90;;;;;;5033157;28;20029;-73
2022/11/02 12:12:06;;;;;;;10.82;3.45;;;14.90;99.90;;;;;;5021731;28;20076;-73
2022/11/02 12:14:58;;;;;;;11.70;4.60;;;14.90;99.90;;;;;;5020201;28;20036;-72
2022/11/02 12:17:42;;;;;;;9.95;3.85;;;14.80;99.90;;;;;;5031086;28;20049;-73
2022/11/02 12:20:15;;;;;;;8.55;3.40;;;14.60;99.90;;;;;;5031429;28;20613;-73
2022/11/02 12:23:07;;;;;;;14.07;5.22;;;14.50;99.90;;;;;;5022031;28;20545;-73
2022/11/02 12:25:51;;;;;;;9.32;3.80;;;14.40;99.90;;;;;;5028536;28;20025;-73
2022/11/02 12:28:22;;;;;;;11.73;4.10;;;14.40;99.90;;;;;;5029406;28;20109;-73
2022/11/02 12:31:02;;;;;;;10.02;4.13;;;14.40;99.90;;;;;;5020715;28;20175;-73
2022/11/02 12:33:53;;;;;;;11.18;3.83;;;14.50;99.90;;;;;;5025092;28;20025;-73
2022/11/02 12:36:24;;;;;;;13.45;4.00;;;14.60;99.90;;;;;;5023087;28;20029;-73
2022/11/02 12:39:00;;;;;;;12.00;4.07;;;14.60;99.90;;;;;;5027022;28;20050;-73
2022/11/02 12:41:44;;;;;;;12.13;4.47;;;14.60;99.90;;;;;;5034934;28;20056;-73
2022/11/02 12:44:18;;;;;;;10.70;3.60;;;14.70;99.90;;;;;;5026316;28;20029;-74
2022/11/02 12:46:56;;;;;;;10.55;4.72;;;14.80;99.90;;;;;;5026221;28;20454;-74
2022/11/02 12:49:38;;;;;;;14.93;3.33;;;14.90;99.90;;;;;;5036392;28;20036;-73
2022/11/02 12:52:09;;;;;;;10.88;3.45;;;14.90;99.90;;;;;;5026988;28;20020;-74
2022/11/02 12:54:45;;;;;;;16.17;4.88;;;14.80;99.90;;;;;;5027368;28;20048;-73
2022/11/02 12:57:14;;;;;;;11.88;4.07;;;14.80;99.90;;;;;;5029032;28;20021;-73
2022/11/02 12:59:42;;;;;;;12.98;4.47;;;14.80;99.90;;;;;;5031301;28;20179;-74
2022/11/02 13:02:30;;;;;;;11.80;4.20;;;14.70;99.90;;;;;;5030404;28;20036;-74
2022/11/02 13:05:13;;;;;;;11.60;4.32;;;14.80;99.90;;;;;;5033016;28;20775;-75
2022/11/02 13:07:54;;;;;;;14.55;4.20;;;14.90;99.90;;;;;;5026826;28;20086;-73
2022/11/02 13:10:40;;;;;;;10.15;3.88;;;15.00;99.90;;;;;;5025630;28;20029;-73
2022/11/02 13:13:15;;;;;;;13.85;4.20;;;15.10;99.90;;;;;;5037141;28;20578;-72
2022/11/02 13:15:43;;;;;;;14.88;3.65;;;15.20;99.90;;;;;;5034252;28;20168;-70
2022/11/02 13:18:19;;;;;;;10.77;4.15;;;15.10;99.90;;;;;;5032436;28;20088;-70
2022/11/02 13:20:50;;;;;;;10.05;4.70;;;15.20;99.90;;;;;;5031237;28;20638;-73
2022/11/02 13:23:34;;;;;;;21.60;4.35;;;15.10;99.90;;;;;;5025836;28;20486;-73